createdAt,value
2019-01-27T00:00:40.982Z,944.85
2019-01-27T00:01:40.880Z,944.76
2019-01-27T00:02:41.215Z,944.81
2019-01-27T00:03:40.998Z,944.71
2019-01-27T00:04:41.322Z,944.76
2019-01-27T00:05:41.309Z,944.73
2019-01-27T00:06:42.309Z,944.73
2019-01-27T00:07:40.950Z,944.79
2019-01-27T00:08:40.840Z,944.69
2019-01-27T00:09:40.752Z,944.69
2019-01-27T00:10:40.770Z,944.71
2019-01-27T00:11:41.905Z,944.74
2019-01-27T00:12:40.772Z,944.68
2019-01-27T00:13:40.795Z,944.64
2019-01-27T00:14:40.921Z,944.64
2019-01-27T00:15:40.742Z,944.64
2019-01-27T00:16:40.741Z,944.69
2019-01-27T00:17:40.716Z,944.58
2019-01-27T00:18:40.829Z,944.56
2019-01-27T00:19:40.872Z,944.56
2019-01-27T00:20:40.765Z,944.56
2019-01-27T00:21:40.827Z,944.51
2019-01-27T00:22:40.663Z,944.48
2019-01-27T00:23:40.669Z,944.55
2019-01-27T00:24:40.992Z,944.49
2019-01-27T00:25:40.665Z,944.45
2019-01-27T00:26:40.956Z,944.40
2019-01-27T00:27:40.662Z,944.36
2019-01-27T00:28:41.619Z,944.39
2019-01-27T00:29:42.415Z,944.29
2019-01-27T00:30:40.799Z,944.30
2019-01-27T00:31:40.599Z,944.32
2019-01-27T00:32:40.584Z,944.26
2019-01-27T00:33:40.572Z,944.30
2019-01-27T00:34:40.581Z,944.26
2019-01-27T00:35:40.575Z,944.21
2019-01-27T00:36:40.547Z,944.20
2019-01-27T00:37:41.851Z,944.22
2019-01-27T00:38:40.538Z,944.19
2019-01-27T00:39:40.526Z,944.21
2019-01-27T00:40:40.537Z,944.17
2019-01-27T00:41:40.513Z,944.20
2019-01-27T00:42:40.511Z,944.15
2019-01-27T00:43:40.499Z,944.07
2019-01-27T00:44:41.600Z,944.16
2019-01-27T00:45:40.510Z,944.02
2019-01-27T00:46:40.473Z,944.02
2019-01-27T00:47:40.462Z,944.04
2019-01-27T00:48:40.459Z,944.05
2019-01-27T00:49:40.464Z,944.02
2019-01-27T00:50:40.444Z,944.00
2019-01-27T00:51:41.012Z,943.93
2019-01-27T00:52:40.426Z,943.93
2019-01-27T00:53:40.418Z,944.00
2019-01-27T00:54:40.410Z,943.90
2019-01-27T00:55:40.416Z,943.92
2019-01-27T00:56:40.399Z,943.88
2019-01-27T00:57:40.393Z,943.89
2019-01-27T00:58:40.416Z,943.88
2019-01-27T00:59:40.374Z,943.91
2019-01-27T01:00:40.377Z,943.84
2019-01-27T01:01:40.360Z,943.88
2019-01-27T01:02:40.406Z,943.92
2019-01-27T01:03:40.348Z,943.85
2019-01-27T01:04:40.363Z,943.86
2019-01-27T01:05:41.917Z,943.80
2019-01-27T01:06:40.322Z,943.79
2019-01-27T01:07:40.314Z,943.86
2019-01-27T01:08:40.310Z,943.82
2019-01-27T01:09:40.299Z,943.76
2019-01-27T01:10:40.293Z,943.76
2019-01-27T01:11:40.288Z,943.69
2019-01-27T01:12:40.276Z,943.79
2019-01-27T01:13:40.270Z,943.72
2019-01-27T01:14:40.281Z,943.63
2019-01-27T01:15:40.258Z,943.69
2019-01-27T01:16:40.249Z,943.69
2019-01-27T01:17:40.244Z,943.59
2019-01-27T01:18:40.238Z,943.62
2019-01-27T01:19:40.225Z,943.56
2019-01-27T01:20:40.229Z,943.56
2019-01-27T01:22:33.392Z,943.55
2019-01-27T01:23:33.341Z,943.52
2019-01-27T01:25:26.350Z,943.50
2019-01-27T01:26:25.996Z,943.49
2019-01-27T01:28:19.134Z,943.53
2019-01-27T01:29:19.085Z,943.55
2019-01-27T01:31:11.934Z,943.53
2019-01-27T01:32:11.676Z,943.52
2019-01-27T01:34:05.391Z,943.46
2019-01-27T01:35:05.103Z,943.47
2019-01-27T01:36:05.310Z,943.42
2019-01-27T01:37:05.353Z,943.32
2019-01-27T01:38:05.330Z,943.33
2019-01-27T01:39:05.334Z,943.33
2019-01-27T01:40:05.293Z,943.37
2019-01-27T01:41:05.300Z,943.29
2019-01-27T01:42:05.059Z,943.29
2019-01-27T01:43:05.271Z,943.24
2019-01-27T01:44:05.256Z,943.24
2019-01-27T01:45:06.868Z,943.20
2019-01-27T01:46:05.234Z,943.17
2019-01-27T01:47:05.279Z,943.14
2019-01-27T01:48:05.343Z,943.24
2019-01-27T01:49:05.277Z,943.14
2019-01-27T01:50:05.257Z,943.01
2019-01-27T01:51:05.250Z,943.03
2019-01-27T01:52:05.256Z,942.95
2019-01-27T01:53:05.275Z,942.99
2019-01-27T01:54:05.233Z,943.00
2019-01-27T01:55:05.169Z,942.98
2019-01-27T01:56:05.198Z,942.83
2019-01-27T01:57:05.200Z,942.88
2019-01-27T01:58:05.160Z,942.90
2019-01-27T01:59:05.151Z,942.81
2019-01-27T02:00:05.154Z,942.85
2019-01-27T02:01:05.123Z,942.79
2019-01-27T02:02:05.131Z,942.70
2019-01-27T02:03:05.142Z,942.77
2019-01-27T02:04:05.099Z,942.75
2019-01-27T02:05:04.921Z,942.70
2019-01-27T02:06:05.147Z,942.68
2019-01-27T02:07:05.088Z,942.61
2019-01-27T02:08:05.069Z,942.58
2019-01-27T02:09:05.086Z,942.56
2019-01-27T02:10:05.051Z,942.51
2019-01-27T02:11:05.054Z,942.47
2019-01-27T02:12:05.070Z,942.52
2019-01-27T02:13:12.288Z,942.56
2019-01-27T02:14:58.543Z,942.51
2019-01-27T02:15:58.289Z,942.41
2019-01-27T02:17:51.375Z,942.31
2019-01-27T02:18:58.512Z,942.34
2019-01-27T02:20:44.844Z,942.22
2019-01-27T02:21:44.723Z,942.26
2019-01-27T02:23:37.687Z,942.25
2019-01-27T02:24:37.598Z,942.20
2019-01-27T02:26:30.580Z,942.10
2019-01-27T02:27:30.238Z,942.06
2019-01-27T02:29:23.387Z,941.99
2019-01-27T02:30:23.090Z,942.03
2019-01-27T02:32:16.194Z,941.97
2019-01-27T02:33:15.935Z,941.85
2019-01-27T02:35:09.159Z,941.92
2019-01-27T02:36:08.807Z,941.93
2019-01-27T02:38:02.477Z,941.85
2019-01-27T02:39:02.405Z,941.81
2019-01-27T02:40:55.332Z,941.79
2019-01-27T02:41:55.270Z,941.82
2019-01-27T02:43:48.228Z,941.72
2019-01-27T02:44:48.160Z,941.64
2019-01-27T02:46:41.679Z,941.75
2019-01-27T02:47:41.347Z,941.69
2019-01-27T02:49:34.530Z,941.67
2019-01-27T02:50:34.473Z,941.59
2019-01-27T02:52:27.392Z,941.59
2019-01-27T02:53:27.021Z,941.47
2019-01-27T02:55:20.175Z,941.34
2019-01-27T02:56:20.102Z,941.27
2019-01-27T02:58:13.004Z,941.24
2019-01-27T02:59:13.018Z,941.28
2019-01-27T03:01:05.839Z,941.28
2019-01-27T03:02:05.622Z,941.17
2019-01-27T03:03:59.384Z,941.18
2019-01-27T03:04:59.227Z,941.12
2019-01-27T03:06:52.641Z,941.05
2019-01-27T03:07:52.386Z,941.02
2019-01-27T03:08:52.593Z,941.16
2019-01-27T03:09:52.559Z,941.13
2019-01-27T03:10:52.590Z,941.07
2019-01-27T03:11:52.544Z,941.13
2019-01-27T03:12:52.564Z,941.07
2019-01-27T03:13:52.536Z,940.98
2019-01-27T03:14:52.610Z,940.99
2019-01-27T03:15:52.529Z,941.01
2019-01-27T03:16:52.543Z,940.93
2019-01-27T03:17:52.527Z,940.95
2019-01-27T03:18:52.284Z,940.89
2019-01-27T03:19:52.498Z,940.92
2019-01-27T03:20:52.544Z,941.01
2019-01-27T03:21:52.484Z,940.97
2019-01-27T03:22:52.503Z,940.90
2019-01-27T03:23:52.497Z,940.85
2019-01-27T03:24:52.475Z,940.86
2019-01-27T03:25:52.481Z,940.80
2019-01-27T03:26:52.501Z,940.79
2019-01-27T03:27:52.480Z,940.81
2019-01-27T03:28:52.443Z,940.79
2019-01-27T03:29:52.474Z,940.79
2019-01-27T03:30:52.479Z,940.76
2019-01-27T03:31:52.441Z,940.78
2019-01-27T03:32:52.426Z,940.77
2019-01-27T03:33:52.463Z,940.77
2019-01-27T03:34:52.491Z,940.73
2019-01-27T03:35:52.391Z,940.63
2019-01-27T03:36:52.168Z,940.71
2019-01-27T03:37:59.524Z,940.71
2019-01-27T03:39:45.250Z,940.63
2019-01-27T03:40:45.277Z,940.70
2019-01-27T03:42:38.755Z,940.65
2019-01-27T03:43:38.433Z,940.65
2019-01-27T03:45:31.584Z,940.60
2019-01-27T03:46:31.481Z,940.60
2019-01-27T03:48:24.498Z,940.48
2019-01-27T03:49:24.360Z,940.55
2019-01-27T03:51:17.368Z,940.50
2019-01-27T03:52:17.247Z,940.59
2019-01-27T03:54:10.124Z,940.52
2019-01-27T03:55:09.814Z,940.48
2019-01-27T03:57:03.529Z,940.29
2019-01-27T03:58:05.237Z,940.36
2019-01-27T03:59:56.393Z,940.40
2019-01-27T04:00:56.320Z,940.43
2019-01-27T04:02:49.999Z,940.38
2019-01-27T04:03:49.818Z,940.40
2019-01-27T04:05:42.699Z,940.43
2019-01-27T04:06:42.404Z,940.38
2019-01-27T04:08:35.579Z,940.25
2019-01-27T04:09:35.496Z,940.24
2019-01-27T04:11:28.434Z,940.23
2019-01-27T04:12:28.129Z,940.28
2019-01-27T04:14:21.201Z,940.21
2019-01-27T04:15:21.178Z,940.18
2019-01-27T04:17:14.091Z,940.26
2019-01-27T04:18:14.074Z,940.20
2019-01-27T04:20:07.534Z,940.11
2019-01-27T04:21:07.544Z,940.14
2019-01-27T04:23:00.987Z,940.15
2019-01-27T04:24:00.893Z,940.18
2019-01-27T04:25:53.864Z,939.98
2019-01-27T04:26:53.757Z,940.11
2019-01-27T04:28:47.215Z,940.04
2019-01-27T04:29:46.978Z,939.92
2019-01-27T04:31:40.110Z,939.96
2019-01-27T04:32:39.776Z,939.92
2019-01-27T04:34:32.891Z,939.94
2019-01-27T04:35:32.620Z,939.91
2019-01-27T04:37:25.772Z,939.85
2019-01-27T04:38:25.677Z,939.93
2019-01-27T04:40:18.643Z,939.73
2019-01-27T04:41:18.319Z,939.77
2019-01-27T04:43:11.711Z,939.69
2019-01-27T04:44:11.609Z,939.63
2019-01-27T04:46:04.487Z,939.49
2019-01-27T04:47:04.240Z,939.57
2019-01-27T04:48:57.908Z,939.59
2019-01-27T04:49:57.656Z,939.58
2019-01-27T04:51:50.810Z,939.54
2019-01-27T04:52:50.738Z,939.61
2019-01-27T04:54:44.287Z,939.61
2019-01-27T04:55:44.182Z,939.70
2019-01-27T04:56:43.933Z,939.57
2019-01-27T04:57:44.181Z,939.51
2019-01-27T04:58:44.157Z,939.47
2019-01-27T04:59:44.151Z,939.53
2019-01-27T05:00:44.108Z,939.52
2019-01-27T05:01:44.112Z,939.57
2019-01-27T05:02:44.136Z,939.57
2019-01-27T05:03:44.088Z,939.54
2019-01-27T05:04:44.073Z,939.49
2019-01-27T05:05:44.090Z,939.40
2019-01-27T05:06:44.082Z,939.38
2019-01-27T05:07:44.054Z,939.40
2019-01-27T05:08:44.044Z,939.34
2019-01-27T05:09:44.188Z,939.42
2019-01-27T05:10:44.117Z,939.43
2019-01-27T05:11:44.079Z,939.42
2019-01-27T05:12:43.832Z,939.46
2019-01-27T05:13:44.063Z,939.37
2019-01-27T05:14:44.058Z,939.42
2019-01-27T05:15:44.004Z,939.34
2019-01-27T05:16:43.800Z,939.28
2019-01-27T05:17:43.776Z,939.23
2019-01-27T05:18:44.012Z,939.27
2019-01-27T05:19:44.024Z,939.27
2019-01-27T05:20:43.727Z,939.26
2019-01-27T05:21:43.722Z,939.27
2019-01-27T05:22:43.718Z,939.20
2019-01-27T05:23:43.710Z,939.13
2019-01-27T05:24:43.704Z,939.12
2019-01-27T05:25:43.693Z,939.14
2019-01-27T05:26:43.696Z,939.26
2019-01-27T05:27:43.681Z,939.10
2019-01-27T05:28:43.673Z,939.16
2019-01-27T05:29:43.667Z,939.15
2019-01-27T05:30:43.659Z,939.10
2019-01-27T05:31:43.664Z,939.13
2019-01-27T05:32:43.643Z,939.09
2019-01-27T05:33:43.645Z,939.08
2019-01-27T05:34:43.630Z,939.12
2019-01-27T05:35:43.624Z,939.06
2019-01-27T05:36:43.615Z,939.00
2019-01-27T05:37:43.616Z,938.99
2019-01-27T05:38:43.601Z,938.96
2019-01-27T05:39:43.596Z,938.96
2019-01-27T05:40:43.585Z,938.92
2019-01-27T05:41:43.580Z,938.90
2019-01-27T05:42:43.573Z,938.88
2019-01-27T05:43:43.570Z,938.89
2019-01-27T05:44:50.981Z,938.90
2019-01-27T05:46:36.766Z,938.89
2019-01-27T05:47:36.445Z,938.86
2019-01-27T05:49:29.553Z,938.79
2019-01-27T05:50:29.457Z,938.67
2019-01-27T05:52:22.481Z,938.75
2019-01-27T05:53:22.382Z,938.80
2019-01-27T05:55:15.435Z,938.71
2019-01-27T05:56:15.300Z,938.66
2019-01-27T05:57:15.346Z,938.64
2019-01-27T05:58:15.255Z,938.72
2019-01-27T05:59:15.275Z,938.72
2019-01-27T06:00:15.218Z,938.68
2019-01-27T06:01:15.213Z,938.55
2019-01-27T06:02:15.207Z,938.53
2019-01-27T06:03:14.958Z,938.58
2019-01-27T06:04:16.383Z,938.63
2019-01-27T06:05:15.201Z,938.57
2019-01-27T06:06:15.167Z,938.67
2019-01-27T06:07:15.264Z,938.59
2019-01-27T06:08:15.193Z,938.69
2019-01-27T06:09:15.242Z,938.60
2019-01-27T06:10:15.180Z,938.58
2019-01-27T06:11:15.168Z,938.58
2019-01-27T06:12:15.196Z,938.58
2019-01-27T06:13:14.898Z,938.50
2019-01-27T06:14:15.342Z,938.48
2019-01-27T06:15:15.126Z,938.52
2019-01-27T06:16:15.169Z,938.55
2019-01-27T06:17:15.106Z,938.38
2019-01-27T06:18:15.204Z,938.47
2019-01-27T06:19:15.072Z,938.38
2019-01-27T06:20:15.248Z,938.44
2019-01-27T06:21:15.145Z,938.30
2019-01-27T06:22:15.455Z,938.37
2019-01-27T06:23:15.103Z,938.42
2019-01-27T06:24:15.047Z,938.29
2019-01-27T06:25:15.045Z,938.34
2019-01-27T06:26:15.075Z,938.26
2019-01-27T06:27:15.151Z,938.26
2019-01-27T06:28:15.072Z,938.25
2019-01-27T06:29:15.144Z,938.22
2019-01-27T06:30:15.090Z,938.26
2019-01-27T06:31:15.120Z,938.29
2019-01-27T06:32:15.043Z,938.18
2019-01-27T06:33:15.586Z,938.06
2019-01-27T06:34:15.141Z,938.10
2019-01-27T06:35:14.975Z,938.09
2019-01-27T06:36:15.060Z,938.15
2019-01-27T06:37:14.753Z,938.05
2019-01-27T06:38:15.003Z,938.03
2019-01-27T06:39:15.010Z,937.98
2019-01-27T06:40:14.993Z,938.02
2019-01-27T06:41:14.947Z,937.99
2019-01-27T06:42:15.018Z,938.00
2019-01-27T06:43:14.691Z,937.90
2019-01-27T06:44:14.641Z,937.93
2019-01-27T06:45:14.674Z,937.93
2019-01-27T06:46:14.918Z,937.98
2019-01-27T06:47:14.930Z,937.97
2019-01-27T06:48:14.881Z,937.91
2019-01-27T06:49:14.829Z,937.97
2019-01-27T06:50:14.559Z,937.89
2019-01-27T06:51:14.556Z,937.86
2019-01-27T06:52:14.545Z,937.91
2019-01-27T06:53:14.538Z,937.83
2019-01-27T06:54:14.531Z,937.94
2019-01-27T06:55:14.522Z,937.90
2019-01-27T06:56:14.517Z,937.89
2019-01-27T06:57:14.508Z,937.87
2019-01-27T06:58:14.501Z,937.86
2019-01-27T06:59:14.499Z,937.89
2019-01-27T07:00:14.492Z,937.87
2019-01-27T07:01:14.486Z,937.82
2019-01-27T07:02:14.473Z,937.88
2019-01-27T07:03:14.465Z,937.70
2019-01-27T07:04:14.456Z,937.82
2019-01-27T07:05:14.450Z,937.74
2019-01-27T07:06:14.445Z,937.68
2019-01-27T07:07:14.433Z,937.69
2019-01-27T07:08:14.428Z,937.79
2019-01-27T07:09:14.418Z,937.81
2019-01-27T07:10:14.414Z,937.75
2019-01-27T07:11:14.405Z,937.71
2019-01-27T07:12:14.400Z,937.72
2019-01-27T07:13:14.401Z,937.70
2019-01-27T07:14:14.384Z,937.69
2019-01-27T07:15:21.882Z,937.60
2019-01-27T07:17:07.754Z,937.60
2019-01-27T07:18:07.443Z,937.61
2019-01-27T07:20:00.565Z,937.61
2019-01-27T07:21:00.335Z,937.61
2019-01-27T07:22:53.555Z,937.60
2019-01-27T07:23:53.513Z,937.51
2019-01-27T07:25:47.318Z,937.57
2019-01-27T07:26:47.071Z,937.64
2019-01-27T07:28:40.713Z,937.57
2019-01-27T07:29:40.540Z,937.50
2019-01-27T07:31:33.507Z,937.59
2019-01-27T07:32:33.375Z,937.53
2019-01-27T07:34:26.594Z,937.52
2019-01-27T07:35:26.145Z,937.52
2019-01-27T07:37:19.316Z,937.50
2019-01-27T07:38:18.969Z,937.46
2019-01-27T07:40:12.195Z,937.50
2019-01-27T07:41:11.800Z,937.48
2019-01-27T07:43:05.030Z,937.43
2019-01-27T07:44:04.746Z,937.39
2019-01-27T07:45:58.547Z,937.26
2019-01-27T07:46:58.427Z,937.28
2019-01-27T07:48:51.771Z,937.28
2019-01-27T07:49:52.036Z,937.24
2019-01-27T07:51:44.722Z,937.26
2019-01-27T07:52:44.830Z,937.21
2019-01-27T07:54:37.593Z,937.18
2019-01-27T07:55:37.551Z,937.06
2019-01-27T07:57:31.379Z,936.96
2019-01-27T07:58:30.687Z,936.94
2019-01-27T08:00:23.482Z,937.03
2019-01-27T08:01:23.377Z,937.12
2019-01-27T08:03:18.609Z,937.05
2019-01-27T08:04:23.460Z,937.02
2019-01-27T08:06:09.129Z,936.91
2019-01-27T08:07:09.064Z,936.85
2019-01-27T08:09:02.374Z,936.89
2019-01-27T08:10:02.239Z,936.86
2019-01-27T08:11:55.720Z,936.88
2019-01-27T08:12:55.638Z,937.04
2019-01-27T08:14:49.191Z,937.07
2019-01-27T08:15:49.231Z,936.92
2019-01-27T08:17:43.110Z,936.90
2019-01-27T08:18:42.559Z,936.96
2019-01-27T08:20:35.879Z,936.93
2019-01-27T08:21:35.761Z,936.99
2019-01-27T08:23:29.245Z,936.78
2019-01-27T08:24:29.167Z,936.76
2019-01-27T08:26:23.066Z,936.75
2019-01-27T08:27:22.975Z,936.79
2019-01-27T08:29:15.893Z,936.75
2019-01-27T08:30:16.040Z,936.83
2019-01-27T08:32:08.830Z,936.75
2019-01-27T08:33:08.681Z,936.81
2019-01-27T08:35:01.733Z,936.81
2019-01-27T08:36:01.785Z,936.84
2019-01-27T08:37:55.358Z,936.86
2019-01-27T08:38:55.288Z,936.86
2019-01-27T08:40:48.723Z,936.85
2019-01-27T08:41:48.620Z,936.85
2019-01-27T08:43:42.058Z,937.02
2019-01-27T08:44:42.043Z,936.94
2019-01-27T08:46:35.754Z,936.89
2019-01-27T08:47:35.870Z,936.98
2019-01-27T08:49:28.796Z,936.96
2019-01-27T08:50:28.624Z,936.88
2019-01-27T08:51:28.268Z,936.96
2019-01-27T08:52:28.373Z,936.98
2019-01-27T08:53:28.495Z,936.87
2019-01-27T08:54:28.487Z,936.75
2019-01-27T08:55:28.588Z,936.80
2019-01-27T08:56:28.496Z,936.79
2019-01-27T08:57:28.988Z,936.77
2019-01-27T08:58:28.199Z,936.81
2019-01-27T08:59:28.192Z,936.89
2019-01-27T09:00:28.191Z,936.90
2019-01-27T09:01:36.462Z,936.78
2019-01-27T09:03:21.592Z,936.87
2019-01-27T09:04:21.244Z,936.89
2019-01-27T09:06:14.325Z,936.88
2019-01-27T09:07:13.926Z,936.87
2019-01-27T09:09:07.171Z,936.76
2019-01-27T09:10:06.911Z,936.80
2019-01-27T09:12:00.068Z,936.83
2019-01-27T09:13:00.073Z,936.85
2019-01-27T09:14:53.521Z,936.79
2019-01-27T09:15:53.478Z,936.90
2019-01-27T09:17:47.454Z,936.87
2019-01-27T09:18:46.578Z,936.83
2019-01-27T09:20:40.297Z,936.77
2019-01-27T09:21:39.863Z,936.73
2019-01-27T09:23:33.638Z,936.71
2019-01-27T09:24:33.451Z,936.74
2019-01-27T09:25:33.359Z,936.67
2019-01-27T09:26:33.684Z,936.67
2019-01-27T09:27:33.704Z,936.68
2019-01-27T09:28:33.323Z,936.72
2019-01-27T09:29:33.310Z,936.73
2019-01-27T09:30:33.289Z,936.76
2019-01-27T09:31:33.283Z,936.80
2019-01-27T09:32:33.276Z,936.83
2019-01-27T09:33:33.277Z,936.81
2019-01-27T09:34:33.281Z,936.80
2019-01-27T09:35:33.281Z,936.81
2019-01-27T09:36:33.319Z,936.79
2019-01-27T09:37:33.289Z,936.80
2019-01-27T09:38:33.259Z,936.77
2019-01-27T09:39:33.274Z,936.86
2019-01-27T09:40:33.268Z,936.84
2019-01-27T09:41:33.256Z,936.83
2019-01-27T09:42:33.211Z,936.77
2019-01-27T09:43:33.229Z,936.83
2019-01-27T09:44:33.210Z,936.82
2019-01-27T09:45:33.244Z,936.72
2019-01-27T09:46:33.218Z,936.80
2019-01-27T09:47:33.215Z,936.81
2019-01-27T09:48:33.224Z,936.76
2019-01-27T09:49:33.208Z,936.75
2019-01-27T09:50:33.173Z,936.77
2019-01-27T09:51:33.205Z,936.65
2019-01-27T09:52:33.182Z,936.69
2019-01-27T09:53:33.143Z,936.64
2019-01-27T09:54:33.138Z,936.63
2019-01-27T09:55:33.189Z,936.62
2019-01-27T09:56:33.122Z,936.82
2019-01-27T09:57:33.113Z,936.60
2019-01-27T09:58:33.127Z,936.64
2019-01-27T09:59:33.143Z,936.66
2019-01-27T10:00:33.092Z,936.65
2019-01-27T10:01:33.113Z,936.65
2019-01-27T10:02:34.860Z,936.71
2019-01-27T10:03:33.103Z,936.71
2019-01-27T10:04:33.092Z,936.65
2019-01-27T10:05:33.094Z,936.67
2019-01-27T10:06:33.087Z,936.58
2019-01-27T10:07:33.081Z,936.64
2019-01-27T10:08:33.041Z,936.70
2019-01-27T10:09:33.058Z,936.67
2019-01-27T10:10:33.041Z,936.71
2019-01-27T10:11:33.024Z,936.67
2019-01-27T10:12:33.021Z,936.71
2019-01-27T10:13:33.970Z,936.59
2019-01-27T10:14:33.031Z,936.64
2019-01-27T10:15:33.011Z,936.53
2019-01-27T10:16:33.032Z,936.58
2019-01-27T10:17:32.999Z,936.54
2019-01-27T10:18:33.013Z,936.61
2019-01-27T10:19:32.998Z,936.57
2019-01-27T10:20:32.972Z,936.45
2019-01-27T10:21:32.969Z,936.51
2019-01-27T10:22:32.992Z,936.55
2019-01-27T10:23:32.967Z,936.45
2019-01-27T10:24:32.969Z,936.45
2019-01-27T10:25:32.951Z,936.51
2019-01-27T10:26:32.960Z,936.40
2019-01-27T10:27:32.944Z,936.44
2019-01-27T10:28:32.927Z,936.46
2019-01-27T10:29:32.925Z,936.39
2019-01-27T10:30:32.943Z,936.43
2019-01-27T10:31:32.954Z,936.42
2019-01-27T10:32:32.942Z,936.44
2019-01-27T10:33:32.926Z,936.34
2019-01-27T10:34:32.903Z,936.30
2019-01-27T10:35:32.917Z,936.24
2019-01-27T10:36:32.895Z,936.25
2019-01-27T10:37:32.911Z,936.26
2019-01-27T10:38:32.905Z,936.23
2019-01-27T10:39:32.867Z,936.30
2019-01-27T10:40:39.883Z,936.25
2019-01-27T10:41:32.881Z,936.34
2019-01-27T10:42:32.861Z,936.22
2019-01-27T10:43:32.848Z,936.19
2019-01-27T10:44:32.934Z,936.21
2019-01-27T10:45:32.858Z,936.18
2019-01-27T10:46:32.838Z,936.13
2019-01-27T10:47:32.816Z,936.19
2019-01-27T10:48:32.821Z,936.26
2019-01-27T10:49:32.830Z,936.23
2019-01-27T10:50:32.830Z,936.24
2019-01-27T10:51:32.799Z,936.20
2019-01-27T10:52:33.031Z,936.24
2019-01-27T10:53:34.931Z,936.29
2019-01-27T10:54:32.806Z,936.25
2019-01-27T10:55:32.795Z,936.14
2019-01-27T10:56:32.770Z,936.11
2019-01-27T10:57:32.777Z,936.09
2019-01-27T10:58:32.770Z,936.09
2019-01-27T10:59:32.750Z,936.01
2019-01-27T11:00:32.790Z,936.01
2019-01-27T11:01:32.767Z,936.06
2019-01-27T11:02:37.146Z,936.08
2019-01-27T11:03:32.732Z,936.11
2019-01-27T11:04:32.758Z,936.06
2019-01-27T11:05:32.714Z,935.99
2019-01-27T11:06:32.735Z,936.07
2019-01-27T11:07:32.733Z,936.04
2019-01-27T11:08:32.698Z,936.05
2019-01-27T11:09:34.273Z,936.03
2019-01-27T11:10:32.700Z,936.00
2019-01-27T11:11:32.686Z,935.92
2019-01-27T11:12:32.679Z,935.92
2019-01-27T11:13:32.684Z,935.89
2019-01-27T11:14:32.674Z,935.89
2019-01-27T11:15:33.479Z,935.80
2019-01-27T11:16:32.664Z,935.87
2019-01-27T11:17:32.679Z,935.78
2019-01-27T11:18:32.668Z,935.88
2019-01-27T11:19:32.650Z,935.71
2019-01-27T11:20:39.743Z,935.72
2019-01-27T11:21:32.647Z,935.67
2019-01-27T11:22:32.634Z,935.73
2019-01-27T11:23:32.608Z,935.65
2019-01-27T11:24:32.601Z,935.59
2019-01-27T11:25:32.597Z,935.61
2019-01-27T11:26:32.591Z,935.64
2019-01-27T11:27:33.066Z,935.57
2019-01-27T11:28:32.597Z,935.65
2019-01-27T11:29:32.604Z,935.62
2019-01-27T11:30:32.593Z,935.65
2019-01-27T11:31:32.573Z,935.60
2019-01-27T11:32:32.554Z,935.61
2019-01-27T11:33:32.546Z,935.54
2019-01-27T11:34:32.577Z,935.57
2019-01-27T11:35:32.559Z,935.56
2019-01-27T11:36:32.546Z,935.54
2019-01-27T11:37:32.531Z,935.53
2019-01-27T11:38:32.518Z,935.47
2019-01-27T11:39:32.521Z,935.57
2019-01-27T11:40:32.510Z,935.45
2019-01-27T11:41:32.526Z,935.49
2019-01-27T11:42:32.553Z,935.49
2019-01-27T11:43:32.496Z,935.50
2019-01-27T11:44:32.485Z,935.47
2019-01-27T11:45:32.482Z,935.43
2019-01-27T11:46:32.484Z,935.43
2019-01-27T11:47:32.491Z,935.42
2019-01-27T11:48:32.472Z,935.45
2019-01-27T11:49:32.468Z,935.41
2019-01-27T11:50:32.439Z,935.38
2019-01-27T11:51:32.452Z,935.37
2019-01-27T11:52:32.439Z,935.40
2019-01-27T11:53:32.433Z,935.32
2019-01-27T11:54:32.414Z,935.28
2019-01-27T11:55:32.408Z,935.30
2019-01-27T11:56:32.397Z,935.33
2019-01-27T11:57:32.409Z,935.31
2019-01-27T11:58:32.394Z,935.33
2019-01-27T11:59:32.380Z,935.34
2019-01-27T12:00:32.379Z,935.30
2019-01-27T12:01:32.381Z,935.28
2019-01-27T12:02:32.360Z,935.23
2019-01-27T12:03:32.363Z,935.28
2019-01-27T12:04:32.349Z,935.29
2019-01-27T12:05:32.342Z,935.28
2019-01-27T12:06:32.333Z,935.25
2019-01-27T12:07:32.329Z,935.26
2019-01-27T12:08:32.327Z,935.31
2019-01-27T12:09:32.352Z,935.30
2019-01-27T12:10:32.311Z,935.16
2019-01-27T12:11:32.306Z,935.10
2019-01-27T12:12:32.382Z,935.16
2019-01-27T12:13:32.293Z,935.11
2019-01-27T12:14:32.337Z,935.10
2019-01-27T12:15:32.274Z,935.08
2019-01-27T12:16:32.279Z,935.04
2019-01-27T12:17:32.267Z,935.02
2019-01-27T12:18:32.276Z,935.05
2019-01-27T12:19:32.250Z,935.08
2019-01-27T12:20:32.246Z,935.05
2019-01-27T12:21:32.249Z,935.07
2019-01-27T12:22:32.237Z,935.09
2019-01-27T12:23:32.263Z,935.06
2019-01-27T12:24:32.236Z,935.08
2019-01-27T12:25:32.230Z,935.05
2019-01-27T12:26:32.204Z,934.99
2019-01-27T12:27:32.203Z,935.07
2019-01-27T12:28:32.222Z,935.00
2019-01-27T12:29:32.246Z,935.00
2019-01-27T12:30:32.179Z,934.99
2019-01-27T12:31:32.184Z,935.03
2019-01-27T12:32:32.164Z,934.97
2019-01-27T12:33:32.157Z,935.07
2019-01-27T12:34:32.154Z,935.04
2019-01-27T12:35:32.147Z,935.01
2019-01-27T12:36:32.147Z,935.02
2019-01-27T12:37:32.141Z,935.01
2019-01-27T12:38:32.135Z,935.02
2019-01-27T12:39:32.153Z,934.90
2019-01-27T12:40:32.139Z,934.94
2019-01-27T12:41:32.114Z,934.89
2019-01-27T12:42:32.103Z,934.91
2019-01-27T12:43:32.116Z,934.74
2019-01-27T12:44:32.097Z,934.85
2019-01-27T12:45:32.086Z,934.84
2019-01-27T12:46:32.097Z,934.84
2019-01-27T12:47:32.108Z,934.83
2019-01-27T12:48:32.065Z,934.82
2019-01-27T12:49:32.071Z,934.80
2019-01-27T12:50:32.046Z,934.81
2019-01-27T12:51:32.045Z,934.84
2019-01-27T12:52:32.036Z,934.75
2019-01-27T12:53:32.058Z,934.70
2019-01-27T12:54:32.036Z,934.78
2019-01-27T12:55:32.025Z,934.70
2019-01-27T12:56:32.005Z,934.70
2019-01-27T12:57:31.998Z,934.73
2019-01-27T12:58:31.992Z,934.70
2019-01-27T12:59:31.987Z,934.61
2019-01-27T13:00:31.980Z,934.64
2019-01-27T13:01:31.972Z,934.65
2019-01-27T13:02:31.972Z,934.68
2019-01-27T13:03:31.962Z,934.64
2019-01-27T13:04:31.961Z,934.61
2019-01-27T13:05:31.947Z,934.60
2019-01-27T13:06:31.945Z,934.50
2019-01-27T13:07:31.938Z,934.53
2019-01-27T13:08:31.927Z,934.50
2019-01-27T13:09:31.922Z,934.54
2019-01-27T13:10:31.921Z,934.50
2019-01-27T13:11:31.909Z,934.53
2019-01-27T13:12:31.900Z,934.46
2019-01-27T13:13:31.896Z,934.51
2019-01-27T13:14:31.898Z,934.52
2019-01-27T13:15:31.878Z,934.45
2019-01-27T13:16:31.878Z,934.55
2019-01-27T13:17:31.867Z,934.59
2019-01-27T13:18:31.859Z,934.62
2019-01-27T13:19:31.857Z,934.58
2019-01-27T13:20:31.853Z,934.61
2019-01-27T13:21:31.848Z,934.61
2019-01-27T13:22:31.838Z,934.53
2019-01-27T13:23:31.846Z,934.50
2019-01-27T13:24:31.825Z,934.65
2019-01-27T13:25:31.814Z,934.64
2019-01-27T13:26:31.808Z,934.60
2019-01-27T13:27:31.803Z,934.51
2019-01-27T13:28:31.887Z,934.50
2019-01-27T13:29:31.800Z,934.61
2019-01-27T13:30:31.786Z,934.50
2019-01-27T13:31:31.812Z,934.50
2019-01-27T13:32:31.778Z,934.49
2019-01-27T13:33:31.798Z,934.47
2019-01-27T13:34:31.757Z,934.49
2019-01-27T13:35:31.754Z,934.43
2019-01-27T13:36:31.744Z,934.46
2019-01-27T13:37:31.737Z,934.52
2019-01-27T13:38:31.744Z,934.41
2019-01-27T13:39:31.726Z,934.43
2019-01-27T13:40:31.718Z,934.38
2019-01-27T13:41:31.726Z,934.34
2019-01-27T13:42:31.707Z,934.38
2019-01-27T13:43:31.698Z,934.30
2019-01-27T13:44:31.696Z,934.29
2019-01-27T13:45:31.709Z,934.43
2019-01-27T13:46:31.683Z,934.39
2019-01-27T13:47:39.102Z,934.37
2019-01-27T13:49:26.043Z,934.39
2019-01-27T13:50:25.950Z,934.32
2019-01-27T13:51:25.923Z,934.32
2019-01-27T13:52:25.767Z,934.33
2019-01-27T13:53:25.711Z,934.40
2019-01-27T13:54:25.696Z,934.27